Aérodrome :
LOGIN :

S'inscrire | Disclaimer

   EN    FR    IT 

 










Légende :    VFR   VFR Marginal   IFR   IFR Intensif   IFR Très Intensif
Visi : 
Plafond : 
>= 8 km
>= 3000ft
5 à 8 km
1000 à 3000 ft
1500m à 5 km
500 à 1000 ft
800 à 1500m
200 à 500 ft
< 800m
< 200 ft
Symboles :   Orages  Brouillard  Fortes neiges  Fortes précipitations  Vent > 20 kt
SIGMETs :   Divers  Orages  Givrage  Turbulence  Onde Orograph.  Cendres Volcan.






- Altitude de l'aérodrome : 768 ft
- Code IATA : MXP


LIMC - Milano Malpensa

DERNIER METAR :
  • 071820Z 02001KT CAVOK 05/02 Q1019 NOSIG

METARs EXPIRÉS :
  • 071750Z 26003KT 220V290 CAVOK 07/03 Q1019 NOSIG
  • 071720Z VRB01KT CAVOK 07/02 Q1018 NOSIG
  • 071650Z 24004KT 220V300 CAVOK 09/02 Q1018 NOSIG
  • 071620Z 24006KT 190V260 CAVOK 09/02 Q1018 NOSIG
  • 071550Z 24005KT CAVOK 10/01 Q1018 NOSIG

TAF TAF LIMC
Valide du 07 à 18h jusqu'au 09 à 00h UTC


071700Z 0718/0824 VRB05KT CAVOK
TEMPO 0800/0808 3000 BCFG
BECMG 0812/0815 3500 BR BKN012 BKN040
TEMPO 0818/0824 DZ



MET'MAP, la Météo Aéronautique d'un coup d'oeil ! - Copyright ORBIFLY Décembre 2007 - Disclaimer

ORBIFLY MET'MAP TEAM :

Programmation & Développement : Alexandra Zaïnal
Sur une idée originale de : Baudouin d'Aumeries
Assistance à la programmation : Marc-Olivier Méhu
Soutien technique & logistique : Manuel Goepfert

Contact : metmap@orbifly.com




SOURCES & CREDITS :

   NOAA